Hatfield, WI

10:41 AM CDT on September 28, 2016 (GMT -0500)
Black River Falls Area | | Change Station

Elev 837 ft 44.25 °N, 90.86 °W | Updated 26 minutes ago

Overcast
Overcast
56 °F
Feels Like 56 °F
N
8
Wind Variable Wind from North

Today
High -- | Low -- °F
--% Chance of Precip.
Yesterday
High -- | Low -- °F
Precip. -- in
Pressure 30.01 in
Visibility 10.0 miles
Clouds Mostly Cloudy 1500 ft
Overcast 2100 ft
Dew Point 53 °F
Humidity 89%
Rainfall 0.00 in
Snow Depth Not available.
6:58 AM 6:48 PM
Waning Crescent, 5% visible
METAR KBCK 281515Z AUTO 01007KT 10SM BKN015 OVC021 14/12 A3001 RMK AO2 T01360119
Pressure 30.01 in
Visibility 10.0 miles
Clouds Mostly Cloudy 1500 ft
Overcast 2100 ft
Dew Point 53 °F
Humidity 89%
Rainfall 0.00 in
Snow Depth Not available.
6:58 AM 6:48 PM
Waning Crescent, 5% visible
METAR KBCK 281515Z AUTO 01007KT 10SM BKN015 OVC021 14/12 A3001 RMK AO2 T01360119

10-Day Weather Forecast

Almanac

Astronomy

Sep. 28, 2016 Rise Set
Actual Time
Civil Twilight
Nautical Twilight
Astronomical Twilight
Moon
Length of Visible Light
Length of Day
Tomorrow will be .
, % of the Moon is Illuminated

Today's Extremes

State Highs State Lows

Community

WunderPhotos

Upload Photos

1,942,268 photos uploaded!

WunderBlog® & News

Nearby

Air Quality

  Air Quality AQ Index Pollutant
Not available.

Snow Depth

Station Depth Elevation

Earthquake Activity

City Distance Mag. Time & Date
Minimum magnitude displayed is 2.5.

Coastal Water Temperatures

Place Temperature

Stations

Nearby Weather Stations

Station Location Temp. Windchill Dew Point Humidity Wind Precip. Elev Updated Type
                   

Watches & Warnings

There are currently no watches in effect.